Time;durP1;ratioP1;P1;durP2;ratioP2;P2;SDS_P1;SDS_P2;PMS_P1;PMS_P2;Temp;Humidity;BMP_temperature;BMP_pressure;BME280_temperature;BME280_humidity;BME280_pressure;Samples;Min_cycle;Max_cycle;Signal;HPM_P1;HPM_P2
2022/09/24 00:01:15;;;;;;;54.38;28.80;;;;;;;;;;4997909;28;20048;-86
2022/09/24 00:03:44;;;;;;;55.28;30.83;;;;;;;;;;4996652;28;20438;-88
2022/09/24 00:06:13;;;;;;;51.10;27.67;;;;;;;;;;5002078;28;20034;-87
2022/09/24 00:08:39;;;;;;;48.85;28.38;;;;;;;;;;4987958;28;20069;-88
2022/09/24 00:11:06;;;;;;;54.10;30.50;;;;;;;;;;5019384;28;20423;-87
2022/09/24 00:13:33;;;;;;;61.03;30.20;;;;;;;;;;5006924;28;20087;-88
2022/09/24 00:16:04;;;;;;;59.63;31.00;;;;;;;;;;5011069;28;20293;-87
2022/09/24 00:18:30;;;;;;;62.50;30.55;;;;;;;;;;5001730;28;20022;-87
2022/09/24 00:21:03;;;;;;;58.05;32.30;;;;;;;;;;5000669;28;20071;-87
2022/09/24 00:23:29;;;;;;;66.40;32.40;;;;;;;;;;4993233;28;20037;-88
2022/09/24 00:28:39;;;;;;;67.07;34.30;;;;;;;;;;5019653;28;20049;-88
2022/09/24 00:31:06;;;;;;;61.92;35.83;;;;;;;;;;5001647;28;20026;-87
2022/09/24 00:33:33;;;;;;;71.55;36.47;;;;;;;;;;5004294;28;20039;-87
2022/09/24 00:36:01;;;;;;;70.78;35.88;;;;;;;;;;5000439;28;20025;-88
2022/09/24 00:38:28;;;;;;;69.82;36.72;;;;;;;;;;5004492;28;20563;-88
2022/09/24 00:40:54;;;;;;;62.67;34.38;;;;;;;;;;5011563;28;20037;-88
2022/09/24 00:43:27;;;;;;;61.92;34.92;;;;;;;;;;5006756;28;20034;-88
2022/09/24 00:46:00;;;;;;;66.00;34.20;;;;;;;;;;5008982;28;20030;-87
2022/09/24 00:48:26;;;;;;;64.03;33.33;;;;;;;;;;4999193;28;20088;-88
2022/09/24 00:50:52;;;;;;;70.38;37.15;;;;;;;;;;4991617;28;20045;-88
2022/09/24 00:53:20;;;;;;;68.53;36.08;;;;;;;;;;5006774;28;20481;-88
2022/09/24 00:55:49;;;;;;;71.88;37.50;;;;;;;;;;5002505;28;20042;-87
2022/09/24 00:58:15;;;;;;;68.25;36.50;;;;;;;;;;5008029;28;20044;-88
2022/09/24 01:00:44;;;;;;;66.93;37.22;;;;;;;;;;4997320;28;20115;-87
2022/09/24 01:03:13;;;;;;;73.45;38.13;;;;;;;;;;5000309;28;20029;-88
2022/09/24 01:05:39;;;;;;;75.65;38.22;;;;;;;;;;5024011;28;20030;-88
2022/09/24 01:08:06;;;;;;;70.43;37.63;;;;;;;;;;4993175;28;20041;-87
2022/09/24 01:10:52;;;;;;;67.95;37.28;;;;;;;;;;5003265;28;20037;-88
2022/09/24 01:13:39;;;;;;;69.72;33.47;;;;;;;;;;4993681;28;20041;-87
2022/09/24 01:16:32;;;;;;;72.57;37.65;;;;;;;;;;5007571;28;20477;-87
2022/09/24 01:18:59;;;;;;;73.60;37.33;;;;;;;;;;4982714;28;20433;-88
2022/09/24 01:21:25;;;;;;;71.72;38.67;;;;;;;;;;5018571;28;20075;-87
2022/09/24 01:23:51;;;;;;;76.45;39.65;;;;;;;;;;5002665;28;20026;-87
2022/09/24 01:26:41;;;;;;;77.70;40.22;;;;;;;;;;5005878;28;20041;-88
2022/09/24 01:29:16;;;;;;;77.57;40.63;;;;;;;;;;5013994;28;20034;-88
2022/09/24 01:31:45;;;;;;;74.22;38.08;;;;;;;;;;5002076;28;20091;-88
2022/09/24 01:34:14;;;;;;;70.90;39.92;;;;;;;;;;5006487;28;20393;-88
2022/09/24 01:36:41;;;;;;;73.10;40.75;;;;;;;;;;5002100;28;20026;-88
2022/09/24 01:39:08;;;;;;;81.43;41.67;;;;;;;;;;4991520;28;20045;-87
2022/09/24 01:41:35;;;;;;;78.30;42.30;;;;;;;;;;5007241;28;20083;-88
2022/09/24 01:44:05;;;;;;;77.07;39.72;;;;;;;;;;5006559;28;20036;-88
2022/09/24 01:46:31;;;;;;;81.00;42.15;;;;;;;;;;5002376;28;20038;-88
2022/09/24 01:48:58;;;;;;;79.55;43.03;;;;;;;;;;5021057;28;20040;-88
2022/09/24 01:52:02;;;;;;;78.57;40.75;;;;;;;;;;5006977;28;20069;-88
2022/09/24 01:54:31;;;;;;;68.65;37.97;;;;;;;;;;4924358;29;20039;-87
2022/09/24 01:57:15;;;;;;;82.88;38.42;;;;;;;;;;4927836;28;20721;-88
2022/09/24 01:59:43;;;;;;;92.22;44.65;;;;;;;;;;4964564;28;20041;-88
2022/09/24 02:02:15;;;;;;;84.82;44.40;;;;;;;;;;5004646;28;20056;-88
2022/09/24 02:04:44;;;;;;;85.03;45.50;;;;;;;;;;5000041;28;20527;-89
2022/09/24 02:07:20;;;;;;;88.85;44.50;;;;;;;;;;4999471;28;20600;-89
2022/09/24 02:09:46;;;;;;;104.22;47.15;;;;;;;;;;5008015;28;20446;-89
2022/09/24 02:12:20;;;;;;;112.20;48.80;;;;;;;;;;4993966;28;20034;-88
2022/09/24 02:14:59;;;;;;;103.85;49.20;;;;;;;;;;5014372;28;20034;-89
2022/09/24 02:17:27;;;;;;;102.72;51.10;;;;;;;;;;5015921;28;20036;-88
2022/09/24 02:19:54;;;;;;;108.22;51.42;;;;;;;;;;5000371;28;20061;-87
2022/09/24 02:22:20;;;;;;;127.60;53.67;;;;;;;;;;5003062;28;20041;-88
2022/09/24 02:24:48;;;;;;;129.63;54.55;;;;;;;;;;5016534;28;20026;-88
2022/09/24 02:27:14;;;;;;;119.78;53.03;;;;;;;;;;5006472;28;20060;-88
2022/09/24 02:29:40;;;;;;;131.73;56.22;;;;;;;;;;5006574;28;20030;-89
2022/09/24 02:32:08;;;;;;;118.72;53.35;;;;;;;;;;4986651;28;20034;-89
2022/09/24 02:34:37;;;;;;;134.93;55.50;;;;;;;;;;5006219;28;20465;-89
2022/09/24 02:37:05;;;;;;;123.07;56.03;;;;;;;;;;5005435;28;20045;-90
2022/09/24 02:39:31;;;;;;;117.68;53.40;;;;;;;;;;5000826;28;20072;-89
2022/09/24 02:41:58;;;;;;;130.85;55.00;;;;;;;;;;5012078;28;20072;-89
2022/09/24 02:44:24;;;;;;;121.97;54.17;;;;;;;;;;4996718;28;20397;-89
2022/09/24 02:46:50;;;;;;;121.13;52.17;;;;;;;;;;4985563;28;20041;-87
2022/09/24 02:49:16;;;;;;;114.95;53.05;;;;;;;;;;4998444;28;20030;-87
2022/09/24 02:51:42;;;;;;;133.00;54.30;;;;;;;;;;4999762;28;20037;-88
2022/09/24 02:54:09;;;;;;;148.45;54.45;;;;;;;;;;5000015;28;20057;-89
2022/09/24 02:56:35;;;;;;;116.80;51.45;;;;;;;;;;4997097;28;20525;-89
2022/09/24 02:59:01;;;;;;;128.75;53.20;;;;;;;;;;4996672;28;20434;-89
2022/09/24 03:01:28;;;;;;;109.50;46.53;;;;;;;;;;5002503;28;20033;-89
2022/09/24 03:03:54;;;;;;;99.78;45.95;;;;;;;;;;4998053;28;20080;-89
2022/09/24 03:06:20;;;;;;;106.90;46.75;;;;;;;;;;4995857;28;20029;-89
2022/09/24 03:08:46;;;;;;;86.40;40.38;;;;;;;;;;5001450;28;20030;-89
2022/09/24 03:11:13;;;;;;;82.03;36.33;;;;;;;;;;4997289;28;20025;-90
2022/09/24 03:13:39;;;;;;;71.93;33.88;;;;;;;;;;4999113;28;20026;-89
2022/09/24 03:16:06;;;;;;;73.90;32.25;;;;;;;;;;4998486;28;20034;-89
2022/09/24 03:18:32;;;;;;;75.38;35.10;;;;;;;;;;4987869;28;20064;-90
2022/09/24 03:21:00;;;;;;;71.75;32.47;;;;;;;;;;4990402;28;20091;-88
2022/09/24 03:23:26;;;;;;;71.78;30.67;;;;;;;;;;4997677;28;20037;-90
2022/09/24 03:25:53;;;;;;;51.03;25.27;;;;;;;;;;5015542;28;20064;-89
2022/09/24 03:28:19;;;;;;;50.55;25.50;;;;;;;;;;5000200;28;20552;-90
2022/09/24 03:31:00;;;;;;;54.35;24.98;;;;;;;;;;5003474;28;20063;-90
2022/09/24 03:33:34;;;;;;;58.05;25.90;;;;;;;;;;4999704;28;20040;-90
2022/09/24 03:36:21;;;;;;;53.50;26.15;;;;;;;;;;4997107;28;20599;-90
2022/09/24 03:38:48;;;;;;;51.33;24.30;;;;;;;;;;4996078;28;20037;-90
2022/09/24 03:41:14;;;;;;;62.22;28.48;;;;;;;;;;5002026;28;20503;-90
2022/09/24 03:43:41;;;;;;;63.38;28.42;;;;;;;;;;4994692;28;20085;-89
2022/09/24 03:46:07;;;;;;;59.03;28.27;;;;;;;;;;5002785;28;20037;-89
2022/09/24 03:48:34;;;;;;;60.30;28.67;;;;;;;;;;4984452;28;20549;-89
2022/09/24 03:51:07;;;;;;;62.50;30.63;;;;;;;;;;5014320;28;20029;-89
2022/09/24 03:53:34;;;;;;;52.97;27.23;;;;;;;;;;4997831;28;20727;-89
2022/09/24 03:56:04;;;;;;;68.38;29.00;;;;;;;;;;5000561;28;20038;-89
2022/09/24 03:58:30;;;;;;;73.38;28.38;;;;;;;;;;4988590;28;20040;-89
2022/09/24 04:00:57;;;;;;;50.60;22.88;;;;;;;;;;5013950;28;20034;-88
2022/09/24 04:03:23;;;;;;;42.63;21.27;;;;;;;;;;4983343;28;20046;-88
2022/09/24 04:05:50;;;;;;;38.30;18.88;;;;;;;;;;4999891;28;20040;-88
2022/09/24 04:08:17;;;;;;;36.40;17.60;;;;;;;;;;5000139;28;20599;-89
2022/09/24 04:10:50;;;;;;;44.95;17.33;;;;;;;;;;4997243;28;20054;-89
2022/09/24 04:13:17;;;;;;;42.97;18.77;;;;;;;;;;4985342;28;20125;-89
2022/09/24 04:15:43;;;;;;;39.63;18.75;;;;;;;;;;4987442;28;20030;-89
2022/09/24 04:18:10;;;;;;;48.67;19.45;;;;;;;;;;5012640;28;20099;-89
2022/09/24 04:20:36;;;;;;;38.90;18.40;;;;;;;;;;5004714;28;20038;-89
2022/09/24 04:23:02;;;;;;;43.35;18.75;;;;;;;;;;4998044;28;20034;-89
2022/09/24 04:25:30;;;;;;;41.13;19.73;;;;;;;;;;5013916;28;20022;-89
2022/09/24 04:27:57;;;;;;;41.45;18.90;;;;;;;;;;4998026;28;20154;-90
2022/09/24 04:30:30;;;;;;;54.22;20.08;;;;;;;;;;5005980;28;20087;-89
2022/09/24 04:32:59;;;;;;;60.28;21.17;;;;;;;;;;4998002;28;20056;-89
2022/09/24 04:35:25;;;;;;;52.83;20.80;;;;;;;;;;4997694;28;20060;-89
2022/09/24 04:37:51;;;;;;;73.80;21.98;;;;;;;;;;5008059;28;20045;-89
2022/09/24 04:40:18;;;;;;;56.85;20.42;;;;;;;;;;4996032;28;20057;-89
2022/09/24 04:42:45;;;;;;;44.33;15.68;;;;;;;;;;4998656;28;20033;-89
2022/09/24 04:45:12;;;;;;;41.30;13.80;;;;;;;;;;4999396;28;20037;-89
2022/09/24 04:47:39;;;;;;;31.63;11.10;;;;;;;;;;4997461;28;20058;-88
2022/09/24 04:50:06;;;;;;;28.27;8.48;;;;;;;;;;4997574;28;20381;-89
2022/09/24 04:52:32;;;;;;;36.25;7.10;;;;;;;;;;5001238;28;20038;-90
2022/09/24 04:55:01;;;;;;;24.95;5.60;;;;;;;;;;5003481;28;20041;-87
2022/09/24 04:57:29;;;;;;;33.83;5.07;;;;;;;;;;4998037;28;20413;-88
2022/09/24 04:59:55;;;;;;;29.48;4.03;;;;;;;;;;4987333;28;20087;-89
2022/09/24 05:02:22;;;;;;;27.42;4.13;;;;;;;;;;4995483;28;20045;-88
2022/09/24 05:04:49;;;;;;;15.20;3.13;;;;;;;;;;4985284;28;20029;-88
2022/09/24 05:07:15;;;;;;;18.83;3.20;;;;;;;;;;5013297;28;20092;-89
2022/09/24 05:09:41;;;;;;;23.85;3.60;;;;;;;;;;4996295;28;20452;-87
2022/09/24 05:12:07;;;;;;;25.92;2.85;;;;;;;;;;5003779;28;20057;-88
2022/09/24 05:14:33;;;;;;;30.35;3.88;;;;;;;;;;5010123;28;20071;-88
2022/09/24 05:16:59;;;;;;;21.30;3.00;;;;;;;;;;4994127;28;20038;-88
2022/09/24 05:19:25;;;;;;;19.20;2.70;;;;;;;;;;5003779;28;20041;-88
2022/09/24 05:21:51;;;;;;;10.73;2.42;;;;;;;;;;4998016;28;20030;-88
2022/09/24 05:24:17;;;;;;;18.30;2.67;;;;;;;;;;4997645;28;20041;-89
2022/09/24 05:29:47;;;;;;;10.93;1.98;;;;;;;;;;4921416;29;20051;-89
2022/09/24 05:32:16;;;;;;;15.75;2.95;;;;;;;;;;4902892;29;20541;-90
2022/09/24 05:34:43;;;;;;;17.92;2.10;;;;;;;;;;4951423;28;20416;-90
2022/09/24 05:37:09;;;;;;;11.73;2.05;;;;;;;;;;4993526;28;20132;-90
2022/09/24 05:39:35;;;;;;;19.15;2.35;;;;;;;;;;4995277;28;20037;-90
2022/09/24 05:42:07;;;;;;;21.83;2.88;;;;;;;;;;4998760;28;20033;-89
2022/09/24 05:44:33;;;;;;;17.95;2.38;;;;;;;;;;4988646;28;20862;-88
2022/09/24 05:46:59;;;;;;;19.90;3.20;;;;;;;;;;4996280;28;20126;-88
2022/09/24 05:49:25;;;;;;;26.70;3.05;;;;;;;;;;4978756;28;20064;-89
2022/09/24 05:51:51;;;;;;;26.80;4.32;;;;;;;;;;4998061;28;20077;-89
2022/09/24 05:54:18;;;;;;;11.57;2.72;;;;;;;;;;4986643;28;20095;-89
2022/09/24 05:56:44;;;;;;;33.25;3.50;;;;;;;;;;4992152;28;20417;-89
2022/09/24 05:59:10;;;;;;;23.50;3.47;;;;;;;;;;5001617;28;20037;-88
2022/09/24 06:01:36;;;;;;;22.52;2.65;;;;;;;;;;4988370;28;20035;-89
2022/09/24 06:04:02;;;;;;;26.60;3.67;;;;;;;;;;4994459;28;20061;-89
2022/09/24 06:06:28;;;;;;;30.75;3.63;;;;;;;;;;4994229;28;20124;-90
2022/09/24 06:08:55;;;;;;;11.00;2.95;;;;;;;;;;4979752;28;20029;-89
2022/09/24 06:11:21;;;;;;;27.27;3.20;;;;;;;;;;4995315;28;20033;-89
2022/09/24 06:13:47;;;;;;;14.32;3.47;;;;;;;;;;4997492;28;20061;-88
2022/09/24 06:16:13;;;;;;;26.00;4.70;;;;;;;;;;4991025;28;20030;-89
2022/09/24 06:18:41;;;;;;;24.02;3.33;;;;;;;;;;5001510;28;20113;-88
2022/09/24 06:21:11;;;;;;;19.00;2.55;;;;;;;;;;5000208;28;20285;-89
2022/09/24 06:23:38;;;;;;;23.08;3.45;;;;;;;;;;4998936;28;20061;-89
2022/09/24 06:26:06;;;;;;;13.25;2.72;;;;;;;;;;4998673;28;20468;-88
2022/09/24 06:28:32;;;;;;;20.35;2.90;;;;;;;;;;4999317;28;20037;-88
2022/09/24 06:31:01;;;;;;;17.08;2.80;;;;;;;;;;5012339;28;20026;-88
2022/09/24 06:33:27;;;;;;;15.65;2.78;;;;;;;;;;4981719;28;20030;-88
2022/09/24 06:35:53;;;;;;;22.38;2.90;;;;;;;;;;4980744;28;20681;-89
2022/09/24 06:38:20;;;;;;;17.02;2.95;;;;;;;;;;5001274;28;20029;-88
2022/09/24 06:40:49;;;;;;;24.20;2.90;;;;;;;;;;4999868;28;20124;-89
2022/09/24 06:43:18;;;;;;;23.70;4.07;;;;;;;;;;4999670;28;20029;-88
2022/09/24 06:45:45;;;;;;;17.92;3.53;;;;;;;;;;4991897;28;20397;-90
2022/09/24 06:48:11;;;;;;;24.55;3.13;;;;;;;;;;4980137;28;20064;-89
2022/09/24 06:50:42;;;;;;;28.48;4.60;;;;;;;;;;4985284;28;20033;-89
2022/09/24 06:53:08;;;;;;;22.00;2.60;;;;;;;;;;5010188;28;20144;-88
2022/09/24 06:55:38;;;;;;;32.08;3.95;;;;;;;;;;4997254;28;20021;-88
2022/09/24 06:58:05;;;;;;;12.45;2.60;;;;;;;;;;4995103;28;20490;-89
2022/09/24 07:00:31;;;;;;;17.70;3.17;;;;;;;;;;5001237;28;20038;-89
2022/09/24 07:02:57;;;;;;;20.55;2.83;;;;;;;;;;4981624;28;20527;-89
2022/09/24 07:05:23;;;;;;;24.65;2.88;;;;;;;;;;4999060;28;20049;-89
2022/09/24 07:07:49;;;;;;;20.55;3.55;;;;;;;;;;4984224;28;20045;-88
2022/09/24 07:10:16;;;;;;;16.27;2.92;;;;;;;;;;4989579;28;20484;-89
2022/09/24 07:12:42;;;;;;;36.95;3.78;;;;;;;;;;4980813;28;20493;-88
2022/09/24 07:15:09;;;;;;;18.85;2.40;;;;;;;;;;4999811;28;20120;-90
2022/09/24 07:17:35;;;;;;;15.55;3.50;;;;;;;;;;4998781;28;20092;-89
2022/09/24 07:20:01;;;;;;;13.40;2.47;;;;;;;;;;4996825;28;20068;-89
2022/09/24 07:22:27;;;;;;;17.05;3.40;;;;;;;;;;4996592;28;20069;-88
2022/09/24 07:24:53;;;;;;;16.95;3.53;;;;;;;;;;5001119;28;20104;-88
2022/09/24 07:27:22;;;;;;;17.45;2.55;;;;;;;;;;4998078;28;20029;-89
2022/09/24 07:29:48;;;;;;;20.13;2.13;;;;;;;;;;4986379;28;21054;-88
2022/09/24 07:32:17;;;;;;;13.88;2.20;;;;;;;;;;4981875;28;20340;-89
2022/09/24 07:34:44;;;;;;;13.30;2.67;;;;;;;;;;4992191;28;20030;-93
2022/09/24 07:37:10;;;;;;;12.23;3.20;;;;;;;;;;4996377;28;20034;-88
2022/09/24 07:39:37;;;;;;;12.27;2.80;;;;;;;;;;4985254;28;20042;-89
2022/09/24 07:42:04;;;;;;;13.68;2.25;;;;;;;;;;4984354;28;20033;-88
2022/09/24 07:44:30;;;;;;;14.30;1.30;;;;;;;;;;4992449;28;20049;-88
2022/09/24 07:46:56;;;;;;;17.38;1.90;;;;;;;;;;4981526;28;20076;-88
2022/09/24 07:49:23;;;;;;;14.32;2.13;;;;;;;;;;5014272;28;20737;-88
2022/09/24 07:51:49;;;;;;;9.32;1.50;;;;;;;;;;4993155;28;20096;-88
2022/09/24 07:54:15;;;;;;;4.75;1.40;;;;;;;;;;5013763;28;20683;-88
2022/09/24 07:56:42;;;;;;;10.43;1.77;;;;;;;;;;5014002;28;20077;-88
2022/09/24 07:59:10;;;;;;;9.65;1.67;;;;;;;;;;5002982;28;20041;-88
2022/09/24 08:01:36;;;;;;;11.18;2.70;;;;;;;;;;4998606;28;20033;-88
2022/09/24 08:04:03;;;;;;;8.27;1.63;;;;;;;;;;4998501;28;20042;-87
2022/09/24 08:06:32;;;;;;;6.57;1.80;;;;;;;;;;4981653;28;20030;-88
2022/09/24 08:08:58;;;;;;;9.45;1.80;;;;;;;;;;5017295;28;20037;-88
2022/09/24 08:11:24;;;;;;;13.32;2.20;;;;;;;;;;4995933;28;20061;-88
2022/09/24 08:13:50;;;;;;;9.93;1.77;;;;;;;;;;5011263;28;20033;-88
2022/09/24 08:16:18;;;;;;;10.57;1.95;;;;;;;;;;5007181;28;20064;-88
2022/09/24 08:18:44;;;;;;;15.00;2.33;;;;;;;;;;4991819;28;20025;-88
2022/09/24 08:21:12;;;;;;;22.45;2.67;;;;;;;;;;4985657;28;20038;-88
2022/09/24 08:23:49;;;;;;;23.30;3.80;;;;;;;;;;4998997;28;20033;-88
2022/09/24 08:26:15;;;;;;;15.98;2.88;;;;;;;;;;5003716;28;20036;-88
2022/09/24 08:28:42;;;;;;;9.15;2.72;;;;;;;;;;5017141;28;20633;-88
2022/09/24 08:31:11;;;;;;;17.08;2.72;;;;;;;;;;4999623;28;20653;-89
2022/09/24 08:33:37;;;;;;;17.20;2.28;;;;;;;;;;4993263;28;20083;-88
2022/09/24 08:36:04;;;;;;;12.93;2.33;;;;;;;;;;5018688;28;20029;-88
2022/09/24 08:38:30;;;;;;;16.10;2.50;;;;;;;;;;4998102;28;20065;-90
2022/09/24 08:41:08;;;;;;;15.80;2.85;;;;;;;;;;4979887;28;20033;-89
2022/09/24 08:43:50;;;;;;;18.80;3.47;;;;;;;;;;4998113;28;20489;-88
2022/09/24 08:49:11;;;;;;;18.92;3.72;;;;;;;;;;5016803;28;20393;-89
2022/09/24 08:51:44;;;;;;;11.02;2.33;;;;;;;;;;4999693;28;20175;-89
2022/09/24 08:54:12;;;;;;;17.38;2.88;;;;;;;;;;4995470;28;20571;-89
2022/09/24 08:56:54;;;;;;;17.38;2.50;;;;;;;;;;5014397;28;20050;-89
2022/09/24 08:59:21;;;;;;;13.68;3.25;;;;;;;;;;4983460;28;20093;-89
2022/09/24 09:01:52;;;;;;;17.35;2.28;;;;;;;;;;4973851;28;20018;-88
2022/09/24 09:04:37;;;;;;;27.17;4.50;;;;;;;;;;4981105;28;20457;-89
2022/09/24 09:07:25;;;;;;;13.25;2.35;;;;;;;;;;4983333;28;20065;-89
2022/09/24 09:09:53;;;;;;;15.23;2.33;;;;;;;;;;4990385;28;20033;-89
2022/09/24 09:12:35;;;;;;;12.63;2.47;;;;;;;;;;4990087;28;20041;-88
2022/09/24 09:15:02;;;;;;;8.75;1.80;;;;;;;;;;4982423;28;20034;-88
2022/09/24 09:17:41;;;;;;;18.25;3.10;;;;;;;;;;4977257;28;20035;-88
2022/09/24 09:20:10;;;;;;;19.88;2.20;;;;;;;;;;4978034;28;20034;-88
2022/09/24 09:22:39;;;;;;;7.50;1.92;;;;;;;;;;4993395;28;20033;-87
2022/09/24 09:25:19;;;;;;;19.05;2.53;;;;;;;;;;4988516;28;20394;-87
2022/09/24 09:27:46;;;;;;;11.10;1.73;;;;;;;;;;4979681;28;20138;-88
2022/09/24 09:30:13;;;;;;;4.55;1.52;;;;;;;;;;4970380;28;20053;-88
2022/09/24 09:32:39;;;;;;;14.40;1.88;;;;;;;;;;4975750;28;20057;-88
2022/09/24 09:35:15;;;;;;;8.50;1.50;;;;;;;;;;4973316;28;20037;-88
2022/09/24 09:37:49;;;;;;;6.97;2.00;;;;;;;;;;4972773;28;20534;-88
2022/09/24 09:40:33;;;;;;;14.85;2.58;;;;;;;;;;4975358;28;20038;-88
2022/09/24 09:43:04;;;;;;;6.82;1.50;;;;;;;;;;4971450;28;20242;-88
2022/09/24 09:45:37;;;;;;;11.43;1.63;;;;;;;;;;4971585;28;20030;-87
2022/09/24 09:48:04;;;;;;;7.88;2.13;;;;;;;;;;4970578;28;20441;-88
2022/09/24 09:50:36;;;;;;;3.63;1.27;;;;;;;;;;4972649;28;20057;-88
2022/09/24 09:53:05;;;;;;;11.15;1.50;;;;;;;;;;4970003;28;20041;-87
2022/09/24 09:55:33;;;;;;;11.27;3.72;;;;;;;;;;4966525;28;20386;-88
2022/09/24 09:58:11;;;;;;;5.63;1.25;;;;;;;;;;4994784;28;20131;-89
2022/09/24 10:00:37;;;;;;;6.97;1.73;;;;;;;;;;4998612;28;20060;-88
2022/09/24 10:03:03;;;;;;;6.57;1.40;;;;;;;;;;4987187;28;20036;-89
2022/09/24 10:05:30;;;;;;;5.53;1.30;;;;;;;;;;4984335;28;20060;-89
2022/09/24 10:07:59;;;;;;;12.82;2.08;;;;;;;;;;4996048;28;20033;-89
2022/09/24 10:10:28;;;;;;;4.97;1.85;;;;;;;;;;4998671;28;20052;-88
2022/09/24 10:13:15;;;;;;;10.05;1.63;;;;;;;;;;4987442;28;20033;-88
2022/09/24 10:15:54;;;;;;;25.70;3.33;;;;;;;;;;5012856;28;20505;-88
2022/09/24 10:18:44;;;;;;;75.13;12.82;;;;;;;;;;5017039;28;20038;-88
2022/09/24 10:21:11;;;;;;;12.77;2.35;;;;;;;;;;4967725;28;20092;-88
2022/09/24 10:23:40;;;;;;;7.68;2.30;;;;;;;;;;4997013;28;20037;-88
2022/09/24 10:26:06;;;;;;;9.30;2.03;;;;;;;;;;4997979;28;20036;-88
2022/09/24 10:31:30;;;;;;;10.63;1.45;;;;;;;;;;5013826;28;20465;-89
2022/09/24 10:34:00;;;;;;;6.95;1.73;;;;;;;;;;5009320;28;20416;-88
2022/09/24 10:36:31;;;;;;;10.77;2.60;;;;;;;;;;4994218;28;20022;-88
2022/09/24 10:39:10;;;;;;;6.35;1.77;;;;;;;;;;4996819;28;20421;-89
2022/09/24 10:41:36;;;;;;;6.22;1.48;;;;;;;;;;4993366;28;20109;-86
2022/09/24 10:44:12;;;;;;;3.63;1.65;;;;;;;;;;4980250;28;20038;-86
2022/09/24 10:46:47;;;;;;;6.15;1.55;;;;;;;;;;4993893;28;20414;-88
2022/09/24 10:49:13;;;;;;;9.55;1.48;;;;;;;;;;5011703;28;20033;-87
2022/09/24 10:52:11;;;;;;;13.73;2.88;;;;;;;;;;4995980;28;20445;-86
2022/09/24 10:54:43;;;;;;;5.95;1.38;;;;;;;;;;4977137;28;20600;-86
2022/09/24 10:57:41;;;;;;;6.25;1.45;;;;;;;;;;4993616;28;20052;-86
2022/09/24 11:00:14;;;;;;;6.95;1.42;;;;;;;;;;4992836;28;20122;-86
2022/09/24 11:02:53;;;;;;;8.88;1.42;;;;;;;;;;4997879;28;20034;-87
2022/09/24 11:05:23;;;;;;;6.80;1.40;;;;;;;;;;4988553;28;20033;-87
2022/09/24 11:07:54;;;;;;;6.97;1.48;;;;;;;;;;4995820;28;20064;-87
2022/09/24 11:10:26;;;;;;;7.63;1.17;;;;;;;;;;5001572;28;20382;-86
2022/09/24 11:13:11;;;;;;;8.32;1.30;;;;;;;;;;4992173;28;20036;-87
2022/09/24 11:15:40;;;;;;;4.20;1.05;;;;;;;;;;5001753;28;20037;-86
2022/09/24 11:18:16;;;;;;;4.10;1.13;;;;;;;;;;4994933;28;20041;-86
2022/09/24 11:20:54;;;;;;;2.83;1.05;;;;;;;;;;4996263;28;20030;-87
2022/09/24 11:23:36;;;;;;;7.70;1.80;;;;;;;;;;5013094;28;20496;-86
2022/09/24 11:26:06;;;;;;;8.43;1.48;;;;;;;;;;4995667;28;20087;-86
2022/09/24 11:28:51;;;;;;;10.68;1.80;;;;;;;;;;4991893;28;20035;-87
2022/09/24 11:31:23;;;;;;;7.65;1.40;;;;;;;;;;4999449;28;20052;-88
2022/09/24 11:33:49;;;;;;;6.45;1.38;;;;;;;;;;5001690;28;20058;-87
2022/09/24 11:36:30;;;;;;;7.05;2.17;;;;;;;;;;5014614;28;20269;-87
2022/09/24 11:39:38;;;;;;;9.50;1.60;;;;;;;;;;4999216;28;20234;-87
2022/09/24 11:42:23;;;;;;;6.28;1.67;;;;;;;;;;5005870;28;20034;-87
2022/09/24 11:45:01;;;;;;;8.68;1.40;;;;;;;;;;4997061;28;20037;-87
2022/09/24 11:47:36;;;;;;;5.65;1.45;;;;;;;;;;5001576;28;20239;-87
2022/09/24 11:50:25;;;;;;;9.13;1.40;;;;;;;;;;5018227;28;20108;-87
2022/09/24 11:53:12;;;;;;;4.20;0.93;;;;;;;;;;5006491;28;20112;-87
2022/09/24 11:55:52;;;;;;;21.98;1.80;;;;;;;;;;5013240;28;20445;-87
2022/09/24 11:58:34;;;;;;;10.35;1.50;;;;;;;;;;5001810;28;20053;-87
2022/09/24 12:01:11;;;;;;;12.02;1.85;;;;;;;;;;5001409;28;20029;-87
2022/09/24 12:03:38;;;;;;;9.18;1.65;;;;;;;;;;4997605;28;20093;-87
2022/09/24 12:06:11;;;;;;;18.30;2.15;;;;;;;;;;5000093;28;20069;-87
2022/09/24 12:08:48;;;;;;;12.43;1.73;;;;;;;;;;4997167;28;20037;-87
2022/09/24 12:11:27;;;;;;;9.10;1.58;;;;;;;;;;4998316;28;20150;-87
2022/09/24 12:14:11;;;;;;;9.85;1.38;;;;;;;;;;5003232;28;20389;-87
2022/09/24 12:16:40;;;;;;;9.75;2.50;;;;;;;;;;5017683;28;20555;-87
2022/09/24 12:19:26;;;;;;;11.60;1.20;;;;;;;;;;4979862;28;20141;-87
2022/09/24 12:22:05;;;;;;;10.48;2.05;;;;;;;;;;4999811;28;20371;-87
2022/09/24 12:24:32;;;;;;;9.70;1.42;;;;;;;;;;5003222;28;20029;-87
2022/09/24 12:27:03;;;;;;;7.50;1.58;;;;;;;;;;4995575;28;20069;-87
2022/09/24 12:35:14;;;;;;;7.70;1.73;;;;;;;;;;5018065;28;20068;-87
2022/09/24 12:37:45;;;;;;;9.38;1.80;;;;;;;;;;4998210;28;20030;-86
2022/09/24 12:40:17;;;;;;;10.02;1.83;;;;;;;;;;4996669;28;20045;-87
2022/09/24 12:42:50;;;;;;;13.02;2.03;;;;;;;;;;5001089;28;20121;-87
2022/09/24 12:45:21;;;;;;;6.28;1.42;;;;;;;;;;5010129;28;20482;-87
2022/09/24 12:48:00;;;;;;;6.38;1.48;;;;;;;;;;4998329;28;20417;-87
2022/09/24 12:50:31;;;;;;;7.85;1.17;;;;;;;;;;5014501;28;20121;-87
2022/09/24 12:52:57;;;;;;;5.30;1.17;;;;;;;;;;5019589;28;20539;-87
2022/09/24 12:55:24;;;;;;;7.43;1.10;;;;;;;;;;5016168;28;20030;-87
2022/09/24 12:57:51;;;;;;;5.15;1.08;;;;;;;;;;4993844;28;20049;-87
2022/09/24 13:00:34;;;;;;;7.00;0.85;;;;;;;;;;5017932;28;20033;-87
2022/09/24 13:03:01;;;;;;;13.35;3.78;;;;;;;;;;4997526;28;20119;-87
2022/09/24 13:05:32;;;;;;;85.43;11.02;;;;;;;;;;4985040;28;20128;-87
2022/09/24 13:07:58;;;;;;;8.95;2.97;;;;;;;;;;5001180;28;20047;-87
2022/09/24 13:10:26;;;;;;;5.05;1.58;;;;;;;;;;5014753;28;20104;-87
2022/09/24 13:12:53;;;;;;;2.90;0.98;;;;;;;;;;5005551;28;20041;-87
2022/09/24 13:15:41;;;;;;;3.38;0.98;;;;;;;;;;4995794;28;20032;-86
2022/09/24 13:18:10;;;;;;;8.10;1.23;;;;;;;;;;5009726;28;20026;-87
2022/09/24 13:20:38;;;;;;;8.18;1.27;;;;;;;;;;4997847;28;20046;-86
2022/09/24 13:23:18;;;;;;;8.55;1.50;;;;;;;;;;5005091;28;20034;-87
2022/09/24 13:25:57;;;;;;;8.35;2.13;;;;;;;;;;5016383;28;20013;-87
2022/09/24 13:28:27;;;;;;;9.02;1.45;;;;;;;;;;5000282;28;20370;-86
2022/09/24 13:31:14;;;;;;;13.05;2.75;;;;;;;;;;5007519;28;20041;-87
2022/09/24 13:33:43;;;;;;;6.47;1.33;;;;;;;;;;4995867;28;20030;-87
2022/09/24 13:36:09;;;;;;;6.68;1.95;;;;;;;;;;5003020;28;20120;-87
2022/09/24 13:38:38;;;;;;;11.75;1.98;;;;;;;;;;4997528;28;20172;-87
2022/09/24 13:41:12;;;;;;;8.63;1.67;;;;;;;;;;4999001;28;20631;-87
2022/09/24 13:43:48;;;;;;;6.72;1.67;;;;;;;;;;5019065;28;20532;-86
2022/09/24 13:46:16;;;;;;;10.57;2.10;;;;;;;;;;5016559;28;20452;-87
2022/09/24 13:48:48;;;;;;;13.40;1.85;;;;;;;;;;5003421;28;20504;-87
2022/09/24 13:51:15;;;;;;;12.02;2.75;;;;;;;;;;5021271;28;20043;-87
2022/09/24 13:53:46;;;;;;;7.82;2.10;;;;;;;;;;4999761;28;20553;-87
2022/09/24 13:56:17;;;;;;;6.22;1.80;;;;;;;;;;5003434;28;20029;-87
2022/09/24 13:58:44;;;;;;;15.48;1.85;;;;;;;;;;5009191;28;20034;-87
2022/09/24 14:01:11;;;;;;;9.52;1.77;;;;;;;;;;5019585;28;20029;-87
2022/09/24 14:03:41;;;;;;;9.75;1.65;;;;;;;;;;5000674;28;20029;-87
2022/09/24 14:06:30;;;;;;;16.90;1.98;;;;;;;;;;5015645;28;20116;-87
2022/09/24 14:09:05;;;;;;;4.85;1.60;;;;;;;;;;4990268;28;20058;-87
2022/09/24 14:11:43;;;;;;;16.23;2.15;;;;;;;;;;4996362;28;20084;-87
2022/09/24 14:14:28;;;;;;;8.82;1.25;;;;;;;;;;4999352;28;20054;-87
2022/09/24 14:17:08;;;;;;;6.82;1.33;;;;;;;;;;5002677;28;20029;-87
2022/09/24 14:19:34;;;;;;;7.75;1.60;;;;;;;;;;5003804;28;20052;-87
2022/09/24 14:22:02;;;;;;;4.35;1.23;;;;;;;;;;4999297;28;20569;-87
2022/09/24 14:24:29;;;;;;;4.90;1.15;;;;;;;;;;5012982;28;20100;-87
2022/09/24 14:27:05;;;;;;;8.48;1.85;;;;;;;;;;5005066;28;20026;-87
2022/09/24 14:29:39;;;;;;;5.25;1.50;;;;;;;;;;4999940;28;20128;-87
2022/09/24 14:32:06;;;;;;;7.10;1.33;;;;;;;;;;4999952;28;20516;-87
2022/09/24 14:34:36;;;;;;;6.80;1.63;;;;;;;;;;5017363;28;20434;-86
2022/09/24 14:37:17;;;;;;;8.20;3.45;;;;;;;;;;5016634;28;20064;-87
2022/09/24 14:39:44;;;;;;;8.45;2.83;;;;;;;;;;5005935;28;20034;-86
2022/09/24 14:42:13;;;;;;;6.93;3.10;;;;;;;;;;4998997;28;20025;-87
2022/09/24 14:44:43;;;;;;;17.40;4.03;;;;;;;;;;5018960;28;20500;-87
2022/09/24 14:47:23;;;;;;;6.20;2.80;;;;;;;;;;5014930;28;20075;-87
2022/09/24 14:49:49;;;;;;;10.65;2.70;;;;;;;;;;5000184;28;20040;-87
2022/09/24 14:52:25;;;;;;;11.65;3.65;;;;;;;;;;4987653;28;20048;-87
2022/09/24 14:55:00;;;;;;;8.85;2.28;;;;;;;;;;5000468;28;20035;-87
2022/09/24 14:57:26;;;;;;;14.95;2.53;;;;;;;;;;5016313;28;20530;-87
2022/09/24 14:59:52;;;;;;;8.65;1.48;;;;;;;;;;4985371;28;20038;-87
2022/09/24 15:02:21;;;;;;;9.85;2.05;;;;;;;;;;4999235;28;20065;-87
2022/09/24 15:04:49;;;;;;;10.07;2.65;;;;;;;;;;4998302;28;20117;-87